Sharps, Virginia
Current Conditions -  °F | °C
As of 6:15 AM on Friday 24 Oct 2014 (Local Time) from KXSA Reporting Station
Clear Clear  
Wind Chill: 51°   Ceiling: Unl
Heat Index: 51°   Visibility: 10mi
Dew Point: 40°   Wind: 3mph
Humidity: 67%   Direction: 300°WNW
Pressure: 29.96"   Gusts: NA
Location:  37.82°N, 76.7°W
Report Text: KXSA 241015Z AUTO 30003KT 10SM CLR 11/05 A2996 RMK AO2 T01050045
Loading
Personal Weather Stations






























Interactive Weather Map
Tropical Storm Tracking
New forecast layout! Learn more

10-Day Weather Forecast

Advertisements
Track Severe Weather on mobile